sensor_id;sensor_type;location;lat;lon;timestamp;P1;durP1;ratioP1;P2;durP2;ratioP2
21927;SDS011;11128;51.096;17.190;2022-07-04T00:02:54;7.90;;;5.32;;
21927;SDS011;11128;51.096;17.190;2022-07-04T00:07:56;7.28;;;5.22;;
21927;SDS011;11128;51.096;17.190;2022-07-04T00:12:58;7.97;;;5.85;;
21927;SDS011;11128;51.096;17.190;2022-07-04T00:18:00;8.90;;;5.78;;
21927;SDS011;11128;51.096;17.190;2022-07-04T00:23:01;8.68;;;6.32;;
21927;SDS011;11128;51.096;17.190;2022-07-04T00:28:03;9.40;;;5.93;;
21927;SDS011;11128;51.096;17.190;2022-07-04T00:33:06;7.10;;;5.85;;
21927;SDS011;11128;51.096;17.190;2022-07-04T00:38:12;8.07;;;5.78;;
21927;SDS011;11128;51.096;17.190;2022-07-04T00:43:20;8.38;;;5.78;;
21927;SDS011;11128;51.096;17.190;2022-07-04T00:48:26;7.65;;;5.70;;
21927;SDS011;11128;51.096;17.190;2022-07-04T00:53:27;10.60;;;5.88;;
21927;SDS011;11128;51.096;17.190;2022-07-04T00:58:29;8.48;;;6.05;;
21927;SDS011;11128;51.096;17.190;2022-07-04T01:03:31;9.75;;;6.15;;
21927;SDS011;11128;51.096;17.190;2022-07-04T01:08:32;10.43;;;6.57;;
21927;SDS011;11128;51.096;17.190;2022-07-04T01:13:33;6.97;;;5.57;;
21927;SDS011;11128;51.096;17.190;2022-07-04T01:18:35;7.53;;;5.80;;
21927;SDS011;11128;51.096;17.190;2022-07-04T01:23:37;8.65;;;6.13;;
21927;SDS011;11128;51.096;17.190;2022-07-04T01:28:40;10.27;;;6.28;;
21927;SDS011;11128;51.096;17.190;2022-07-04T01:33:42;9.27;;;5.70;;
21927;SDS011;11128;51.096;17.190;2022-07-04T01:38:43;8.30;;;6.32;;
21927;SDS011;11128;51.096;17.190;2022-07-04T01:43:45;8.30;;;6.05;;
21927;SDS011;11128;51.096;17.190;2022-07-04T01:48:46;8.88;;;5.95;;
21927;SDS011;11128;51.096;17.190;2022-07-04T01:53:49;8.38;;;6.25;;
21927;SDS011;11128;51.096;17.190;2022-07-04T01:58:50;8.07;;;6.45;;
21927;SDS011;11128;51.096;17.190;2022-07-04T02:03:52;7.50;;;5.57;;
21927;SDS011;11128;51.096;17.190;2022-07-04T02:08:54;8.70;;;6.72;;
21927;SDS011;11128;51.096;17.190;2022-07-04T02:14:14;9.43;;;6.75;;
21927;SDS011;11128;51.096;17.190;2022-07-04T02:19:16;8.60;;;6.53;;
21927;SDS011;11128;51.096;17.190;2022-07-04T02:24:19;8.63;;;6.07;;
21927;SDS011;11128;51.096;17.190;2022-07-04T02:29:21;9.18;;;6.53;;
21927;SDS011;11128;51.096;17.190;2022-07-04T02:34:23;8.27;;;6.43;;
21927;SDS011;11128;51.096;17.190;2022-07-04T02:39:25;9.75;;;6.80;;
21927;SDS011;11128;51.096;17.190;2022-07-04T02:44:26;13.13;;;7.18;;
21927;SDS011;11128;51.096;17.190;2022-07-04T02:49:28;10.07;;;7.03;;
21927;SDS011;11128;51.096;17.190;2022-07-04T02:54:30;11.23;;;6.80;;
21927;SDS011;11128;51.096;17.190;2022-07-04T02:59:33;9.85;;;7.03;;
21927;SDS011;11128;51.096;17.190;2022-07-04T03:04:35;9.50;;;6.32;;
21927;SDS011;11128;51.096;17.190;2022-07-04T03:09:36;8.57;;;6.57;;
21927;SDS011;11128;51.096;17.190;2022-07-04T03:14:37;12.48;;;6.45;;
21927;SDS011;11128;51.096;17.190;2022-07-04T03:19:38;8.63;;;6.93;;
21927;SDS011;11128;51.096;17.190;2022-07-04T03:24:41;11.60;;;7.18;;
21927;SDS011;11128;51.096;17.190;2022-07-04T03:29:42;9.18;;;6.63;;
21927;SDS011;11128;51.096;17.190;2022-07-04T03:34:43;10.55;;;6.32;;
21927;SDS011;11128;51.096;17.190;2022-07-04T03:39:45;8.40;;;6.45;;
21927;SDS011;11128;51.096;17.190;2022-07-04T03:44:46;8.63;;;5.90;;
21927;SDS011;11128;51.096;17.190;2022-07-04T03:49:47;10.10;;;6.70;;
21927;SDS011;11128;51.096;17.190;2022-07-04T03:54:50;9.63;;;7.47;;
21927;SDS011;11128;51.096;17.190;2022-07-04T03:59:51;11.30;;;7.82;;
21927;SDS011;11128;51.096;17.190;2022-07-04T04:04:52;12.05;;;9.18;;
21927;SDS011;11128;51.096;17.190;2022-07-04T04:10:12;16.60;;;8.95;;
21927;SDS011;11128;51.096;17.190;2022-07-04T04:15:13;17.20;;;9.30;;
21927;SDS011;11128;51.096;17.190;2022-07-04T04:20:15;16.70;;;9.13;;
21927;SDS011;11128;51.096;17.190;2022-07-04T04:25:17;12.95;;;9.38;;
21927;SDS011;11128;51.096;17.190;2022-07-04T04:30:22;15.07;;;9.23;;
21927;SDS011;11128;51.096;17.190;2022-07-04T04:35:23;17.33;;;9.07;;
21927;SDS011;11128;51.096;17.190;2022-07-04T04:40:25;14.82;;;9.60;;
21927;SDS011;11128;51.096;17.190;2022-07-04T04:45:26;11.10;;;8.57;;
21927;SDS011;11128;51.096;17.190;2022-07-04T04:50:28;14.18;;;9.05;;
21927;SDS011;11128;51.096;17.190;2022-07-04T04:55:29;14.10;;;9.77;;
21927;SDS011;11128;51.096;17.190;2022-07-04T05:00:31;10.52;;;7.82;;
21927;SDS011;11128;51.096;17.190;2022-07-04T05:05:33;11.68;;;7.82;;
21927;SDS011;11128;51.096;17.190;2022-07-04T05:10:34;12.48;;;8.07;;
21927;SDS011;11128;51.096;17.190;2022-07-04T05:15:35;10.57;;;7.80;;
21927;SDS011;11128;51.096;17.190;2022-07-04T05:20:36;10.73;;;7.30;;
21927;SDS011;11128;51.096;17.190;2022-07-04T05:25:38;9.63;;;6.45;;
21927;SDS011;11128;51.096;17.190;2022-07-04T05:30:39;7.82;;;6.18;;
21927;SDS011;11128;51.096;17.190;2022-07-04T05:35:41;7.15;;;6.18;;
21927;SDS011;11128;51.096;17.190;2022-07-04T05:40:44;7.15;;;5.95;;
21927;SDS011;11128;51.096;17.190;2022-07-04T05:45:45;8.73;;;6.53;;
21927;SDS011;11128;51.096;17.190;2022-07-04T05:50:49;8.57;;;5.32;;
21927;SDS011;11128;51.096;17.190;2022-07-04T05:55:50;7.45;;;5.18;;
21927;SDS011;11128;51.096;17.190;2022-07-04T06:00:51;6.45;;;5.05;;
21927;SDS011;11128;51.096;17.190;2022-07-04T06:05:53;5.00;;;4.50;;
21927;SDS011;11128;51.096;17.190;2022-07-04T06:10:54;5.05;;;4.57;;
21927;SDS011;11128;51.096;17.190;2022-07-04T06:15:56;6.93;;;4.90;;
21927;SDS011;11128;51.096;17.190;2022-07-04T06:20:57;5.13;;;4.32;;
21927;SDS011;11128;51.096;17.190;2022-07-04T06:25:59;5.10;;;4.38;;
21927;SDS011;11128;51.096;17.190;2022-07-04T06:31:02;6.70;;;4.13;;
21927;SDS011;11128;51.096;17.190;2022-07-04T06:36:03;7.57;;;4.75;;
21927;SDS011;11128;51.096;17.190;2022-07-04T06:41:05;7.75;;;4.88;;
21927;SDS011;11128;51.096;17.190;2022-07-04T06:46:07;6.68;;;4.00;;
21927;SDS011;11128;51.096;17.190;2022-07-04T06:51:09;5.53;;;3.83;;
21927;SDS011;11128;51.096;17.190;2022-07-04T06:56:11;8.57;;;3.13;;
21927;SDS011;11128;51.096;17.190;2022-07-04T07:01:14;6.47;;;3.50;;
21927;SDS011;11128;51.096;17.190;2022-07-04T07:06:17;4.50;;;3.05;;
21927;SDS011;11128;51.096;17.190;2022-07-04T07:11:19;5.03;;;3.20;;
21927;SDS011;11128;51.096;17.190;2022-07-04T07:16:20;4.68;;;3.05;;
21927;SDS011;11128;51.096;17.190;2022-07-04T07:21:23;6.22;;;2.60;;
21927;SDS011;11128;51.096;17.190;2022-07-04T07:26:25;3.90;;;3.13;;
21927;SDS011;11128;51.096;17.190;2022-07-04T07:31:26;5.13;;;2.72;;
21927;SDS011;11128;51.096;17.190;2022-07-04T07:36:28;6.32;;;2.65;;
21927;SDS011;11128;51.096;17.190;2022-07-04T07:41:30;4.90;;;2.60;;
21927;SDS011;11128;51.096;17.190;2022-07-04T07:46:35;5.05;;;2.97;;
21927;SDS011;11128;51.096;17.190;2022-07-04T07:51:37;4.10;;;2.63;;
21927;SDS011;11128;51.096;17.190;2022-07-04T07:56:39;3.47;;;2.63;;
21927;SDS011;11128;51.096;17.190;2022-07-04T08:01:41;5.20;;;2.50;;
21927;SDS011;11128;51.096;17.190;2022-07-04T08:06:43;3.63;;;2.22;;
21927;SDS011;11128;51.096;17.190;2022-07-04T08:11:45;3.30;;;2.30;;
21927;SDS011;11128;51.096;17.190;2022-07-04T08:16:47;4.90;;;2.42;;
21927;SDS011;11128;51.096;17.190;2022-07-04T08:21:48;3.30;;;2.25;;
21927;SDS011;11128;51.096;17.190;2022-07-04T08:26:50;4.55;;;2.53;;
21927;SDS011;11128;51.096;17.190;2022-07-04T08:31:53;4.82;;;2.42;;
21927;SDS011;11128;51.096;17.190;2022-07-04T08:36:54;4.80;;;2.70;;
21927;SDS011;11128;51.096;17.190;2022-07-04T08:41:56;2.28;;;1.95;;
21927;SDS011;11128;51.096;17.190;2022-07-04T08:47:05;4.70;;;2.30;;
21927;SDS011;11128;51.096;17.190;2022-07-04T08:52:10;3.65;;;2.15;;
21927;SDS011;11128;51.096;17.190;2022-07-04T08:57:15;3.75;;;2.80;;
21927;SDS011;11128;51.096;17.190;2022-07-04T09:02:35;5.63;;;2.72;;
21927;SDS011;11128;51.096;17.190;2022-07-04T09:07:40;3.45;;;2.42;;
21927;SDS011;11128;51.096;17.190;2022-07-04T09:12:41;3.45;;;2.42;;
21927;SDS011;11128;51.096;17.190;2022-07-04T09:17:43;5.80;;;2.65;;
21927;SDS011;11128;51.096;17.190;2022-07-04T09:22:45;2.88;;;2.55;;
21927;SDS011;11128;51.096;17.190;2022-07-04T09:27:49;5.20;;;2.92;;
21927;SDS011;11128;51.096;17.190;2022-07-04T09:32:56;6.43;;;2.65;;
21927;SDS011;11128;51.096;17.190;2022-07-04T09:38:05;3.80;;;2.78;;
21927;SDS011;11128;51.096;17.190;2022-07-04T09:43:11;5.97;;;2.80;;
21927;SDS011;11128;51.096;17.190;2022-07-04T09:48:13;5.13;;;2.97;;
21927;SDS011;11128;51.096;17.190;2022-07-04T09:53:14;4.85;;;3.38;;
21927;SDS011;11128;51.096;17.190;2022-07-04T09:58:16;8.88;;;3.20;;
21927;SDS011;11128;51.096;17.190;2022-07-04T10:08:19;6.40;;;3.50;;
21927;SDS011;11128;51.096;17.190;2022-07-04T10:13:20;4.45;;;3.58;;
21927;SDS011;11128;51.096;17.190;2022-07-04T10:18:24;4.85;;;3.30;;
21927;SDS011;11128;51.096;17.190;2022-07-04T10:23:26;9.35;;;3.75;;
21927;SDS011;11128;51.096;17.190;2022-07-04T10:28:32;3.92;;;3.55;;
21927;SDS011;11128;51.096;17.190;2022-07-04T10:33:33;4.63;;;3.92;;
21927;SDS011;11128;51.096;17.190;2022-07-04T10:38:47;5.03;;;3.92;;
21927;SDS011;11128;51.096;17.190;2022-07-04T10:44:05;5.90;;;3.55;;
21927;SDS011;11128;51.096;17.190;2022-07-04T10:49:19;7.75;;;4.10;;
21927;SDS011;11128;51.096;17.190;2022-07-04T10:59:38;5.20;;;4.15;;
21927;SDS011;11128;51.096;17.190;2022-07-04T11:04:50;4.88;;;4.18;;
21927;SDS011;11128;51.096;17.190;2022-07-04T11:15:14;5.60;;;4.03;;
21927;SDS011;11128;51.096;17.190;2022-07-04T11:20:16;4.55;;;3.88;;
21927;SDS011;11128;51.096;17.190;2022-07-04T11:25:18;5.15;;;4.30;;
21927;SDS011;11128;51.096;17.190;2022-07-04T11:30:20;6.30;;;4.00;;
21927;SDS011;11128;51.096;17.190;2022-07-04T11:35:22;4.88;;;3.58;;
21927;SDS011;11128;51.096;17.190;2022-07-04T11:40:24;8.07;;;3.42;;
21927;SDS011;11128;51.096;17.190;2022-07-04T11:46:10;3.78;;;3.47;;
21927;SDS011;11128;51.096;17.190;2022-07-04T11:51:17;3.75;;;3.45;;
21927;SDS011;11128;51.096;17.190;2022-07-04T11:56:18;4.05;;;3.33;;
21927;SDS011;11128;51.096;17.190;2022-07-04T12:01:26;3.83;;;3.53;;
21927;SDS011;11128;51.096;17.190;2022-07-04T12:06:28;5.32;;;3.85;;
21927;SDS011;11128;51.096;17.190;2022-07-04T12:17:10;4.28;;;3.15;;
21927;SDS011;11128;51.096;17.190;2022-07-04T12:22:30;6.47;;;3.42;;
21927;SDS011;11128;51.096;17.190;2022-07-04T12:27:34;4.07;;;2.97;;
21927;SDS011;11128;51.096;17.190;2022-07-04T12:32:45;5.07;;;3.17;;
21927;SDS011;11128;51.096;17.190;2022-07-04T12:38:05;4.45;;;2.70;;
21927;SDS011;11128;51.096;17.190;2022-07-04T12:43:14;4.25;;;3.00;;
21927;SDS011;11128;51.096;17.190;2022-07-04T12:48:28;6.35;;;3.20;;
21927;SDS011;11128;51.096;17.190;2022-07-04T12:53:35;4.85;;;2.85;;
21927;SDS011;11128;51.096;17.190;2022-07-04T13:03:40;5.70;;;2.50;;
21927;SDS011;11128;51.096;17.190;2022-07-04T13:08:44;7.20;;;2.67;;
21927;SDS011;11128;51.096;17.190;2022-07-04T13:13:45;3.90;;;2.65;;
21927;SDS011;11128;51.096;17.190;2022-07-04T13:18:47;2.90;;;2.60;;
21927;SDS011;11128;51.096;17.190;2022-07-04T13:23:49;3.15;;;2.65;;
21927;SDS011;11128;51.096;17.190;2022-07-04T13:28:50;4.85;;;3.03;;
21927;SDS011;11128;51.096;17.190;2022-07-04T13:33:55;3.72;;;2.53;;
21927;SDS011;11128;51.096;17.190;2022-07-04T13:38:56;2.70;;;2.50;;
21927;SDS011;11128;51.096;17.190;2022-07-04T13:43:59;5.97;;;2.53;;
21927;SDS011;11128;51.096;17.190;2022-07-04T13:49:04;4.18;;;2.70;;
21927;SDS011;11128;51.096;17.190;2022-07-04T13:54:06;3.30;;;2.60;;
21927;SDS011;11128;51.096;17.190;2022-07-04T13:59:08;4.05;;;2.42;;
21927;SDS011;11128;51.096;17.190;2022-07-04T14:04:10;5.57;;;2.85;;
21927;SDS011;11128;51.096;17.190;2022-07-04T14:09:11;10.45;;;3.40;;
21927;SDS011;11128;51.096;17.190;2022-07-04T14:14:14;3.95;;;2.00;;
21927;SDS011;11128;51.096;17.190;2022-07-04T14:19:15;4.03;;;2.25;;
21927;SDS011;11128;51.096;17.190;2022-07-04T14:24:17;3.58;;;2.33;;
21927;SDS011;11128;51.096;17.190;2022-07-04T14:29:19;4.47;;;2.92;;
21927;SDS011;11128;51.096;17.190;2022-07-04T14:34:22;5.38;;;2.55;;
21927;SDS011;11128;51.096;17.190;2022-07-04T14:39:24;3.85;;;2.40;;
21927;SDS011;11128;51.096;17.190;2022-07-04T14:44:26;3.08;;;2.45;;
21927;SDS011;11128;51.096;17.190;2022-07-04T14:49:29;4.38;;;2.38;;
21927;SDS011;11128;51.096;17.190;2022-07-04T14:54:30;2.95;;;2.13;;
21927;SDS011;11128;51.096;17.190;2022-07-04T14:59:32;7.82;;;2.38;;
21927;SDS011;11128;51.096;17.190;2022-07-04T15:04:39;5.28;;;1.92;;
21927;SDS011;11128;51.096;17.190;2022-07-04T15:09:41;3.63;;;2.05;;
21927;SDS011;11128;51.096;17.190;2022-07-04T15:14:42;2.90;;;2.10;;
21927;SDS011;11128;51.096;17.190;2022-07-04T15:19:44;3.60;;;2.05;;
21927;SDS011;11128;51.096;17.190;2022-07-04T15:25:05;4.95;;;2.13;;
21927;SDS011;11128;51.096;17.190;2022-07-04T15:30:07;4.30;;;2.22;;
21927;SDS011;11128;51.096;17.190;2022-07-04T15:35:09;3.60;;;1.65;;
21927;SDS011;11128;51.096;17.190;2022-07-04T15:40:11;4.45;;;1.92;;
21927;SDS011;11128;51.096;17.190;2022-07-04T15:45:13;1.98;;;1.88;;
21927;SDS011;11128;51.096;17.190;2022-07-04T15:50:15;2.60;;;1.80;;
21927;SDS011;11128;51.096;17.190;2022-07-04T15:55:17;7.45;;;2.13;;
21927;SDS011;11128;51.096;17.190;2022-07-04T16:00:19;6.57;;;1.70;;
21927;SDS011;11128;51.096;17.190;2022-07-04T16:05:21;3.15;;;1.85;;
21927;SDS011;11128;51.096;17.190;2022-07-04T16:10:22;4.32;;;2.13;;
21927;SDS011;11128;51.096;17.190;2022-07-04T16:15:24;4.03;;;1.98;;
21927;SDS011;11128;51.096;17.190;2022-07-04T16:20:26;2.28;;;1.70;;
21927;SDS011;11128;51.096;17.190;2022-07-04T16:25:27;53.42;;;28.25;;
21927;SDS011;11128;51.096;17.190;2022-07-04T16:30:30;3.22;;;2.58;;
21927;SDS011;11128;51.096;17.190;2022-07-04T16:35:31;3.58;;;1.90;;
21927;SDS011;11128;51.096;17.190;2022-07-04T16:40:32;3.45;;;1.92;;
21927;SDS011;11128;51.096;17.190;2022-07-04T16:45:35;3.15;;;2.15;;
21927;SDS011;11128;51.096;17.190;2022-07-04T16:50:37;2.80;;;2.55;;
21927;SDS011;11128;51.096;17.190;2022-07-04T16:55:40;4.13;;;2.03;;
21927;SDS011;11128;51.096;17.190;2022-07-04T17:00:42;3.08;;;2.20;;
21927;SDS011;11128;51.096;17.190;2022-07-04T17:05:44;3.45;;;2.10;;
21927;SDS011;11128;51.096;17.190;2022-07-04T17:10:45;2.67;;;2.03;;
21927;SDS011;11128;51.096;17.190;2022-07-04T17:15:47;1.88;;;1.77;;
21927;SDS011;11128;51.096;17.190;2022-07-04T17:20:50;2.92;;;1.95;;
21927;SDS011;11128;51.096;17.190;2022-07-04T17:25:51;3.40;;;2.03;;
21927;SDS011;11128;51.096;17.190;2022-07-04T17:30:53;5.88;;;2.35;;
21927;SDS011;11128;51.096;17.190;2022-07-04T17:35:56;6.07;;;1.98;;
21927;SDS011;11128;51.096;17.190;2022-07-04T17:40:58;4.43;;;2.42;;
21927;SDS011;11128;51.096;17.190;2022-07-04T17:46:18;6.93;;;3.05;;
21927;SDS011;11128;51.096;17.190;2022-07-04T17:51:20;6.60;;;2.42;;
21927;SDS011;11128;51.096;17.190;2022-07-04T17:56:21;5.22;;;2.75;;
21927;SDS011;11128;51.096;17.190;2022-07-04T18:01:23;11.15;;;3.05;;
21927;SDS011;11128;51.096;17.190;2022-07-04T18:06:25;6.85;;;3.10;;
21927;SDS011;11128;51.096;17.190;2022-07-04T18:11:26;6.22;;;3.17;;
21927;SDS011;11128;51.096;17.190;2022-07-04T18:16:30;6.57;;;3.83;;
21927;SDS011;11128;51.096;17.190;2022-07-04T18:21:32;6.28;;;4.10;;
21927;SDS011;11128;51.096;17.190;2022-07-04T18:26:35;12.32;;;4.72;;
21927;SDS011;11128;51.096;17.190;2022-07-04T18:31:36;10.40;;;4.45;;
21927;SDS011;11128;51.096;17.190;2022-07-04T18:36:39;7.53;;;3.67;;
21927;SDS011;11128;51.096;17.190;2022-07-04T18:41:40;6.75;;;4.28;;
21927;SDS011;11128;51.096;17.190;2022-07-04T18:47:01;6.25;;;5.07;;
21927;SDS011;11128;51.096;17.190;2022-07-04T18:52:03;9.45;;;5.10;;
21927;SDS011;11128;51.096;17.190;2022-07-04T18:57:05;9.90;;;5.05;;
21927;SDS011;11128;51.096;17.190;2022-07-04T19:02:11;6.40;;;4.85;;
21927;SDS011;11128;51.096;17.190;2022-07-04T19:07:13;8.27;;;5.35;;
21927;SDS011;11128;51.096;17.190;2022-07-04T19:12:15;11.57;;;4.82;;
21927;SDS011;11128;51.096;17.190;2022-07-04T19:17:16;9.50;;;5.75;;
21927;SDS011;11128;51.096;17.190;2022-07-04T19:22:19;7.68;;;6.68;;
21927;SDS011;11128;51.096;17.190;2022-07-04T19:27:21;8.65;;;5.93;;
21927;SDS011;11128;51.096;17.190;2022-07-04T19:32:23;6.18;;;5.60;;
21927;SDS011;11128;51.096;17.190;2022-07-04T19:37:27;7.00;;;6.18;;
21927;SDS011;11128;51.096;17.190;2022-07-04T19:42:29;8.75;;;7.50;;
21927;SDS011;11128;51.096;17.190;2022-07-04T19:47:32;8.65;;;6.38;;
21927;SDS011;11128;51.096;17.190;2022-07-04T19:52:34;11.07;;;6.05;;
21927;SDS011;11128;51.096;17.190;2022-07-04T19:57:37;8.63;;;6.05;;
21927;SDS011;11128;51.096;17.190;2022-07-04T20:02:41;9.32;;;6.40;;
21927;SDS011;11128;51.096;17.190;2022-07-04T20:07:44;9.90;;;6.38;;
21927;SDS011;11128;51.096;17.190;2022-07-04T20:12:50;9.40;;;6.88;;
21927;SDS011;11128;51.096;17.190;2022-07-04T20:17:52;8.52;;;7.43;;
21927;SDS011;11128;51.096;17.190;2022-07-04T20:22:55;10.00;;;8.05;;
21927;SDS011;11128;51.096;17.190;2022-07-04T20:28:01;7.65;;;6.65;;
21927;SDS011;11128;51.096;17.190;2022-07-04T20:33:03;8.60;;;7.20;;
21927;SDS011;11128;51.096;17.190;2022-07-04T20:38:05;7.63;;;6.85;;
21927;SDS011;11128;51.096;17.190;2022-07-04T20:43:07;7.95;;;6.85;;
21927;SDS011;11128;51.096;17.190;2022-07-04T20:48:10;7.45;;;6.72;;
21927;SDS011;11128;51.096;17.190;2022-07-04T20:53:13;10.05;;;7.43;;
21927;SDS011;11128;51.096;17.190;2022-07-04T20:58:14;8.43;;;7.38;;
21927;SDS011;11128;51.096;17.190;2022-07-04T21:03:16;8.40;;;7.45;;
21927;SDS011;11128;51.096;17.190;2022-07-04T21:08:18;9.75;;;7.80;;
21927;SDS011;11128;51.096;17.190;2022-07-04T21:13:20;10.30;;;8.23;;
21927;SDS011;11128;51.096;17.190;2022-07-04T21:18:22;9.77;;;8.10;;
21927;SDS011;11128;51.096;17.190;2022-07-04T21:23:23;9.95;;;7.55;;
21927;SDS011;11128;51.096;17.190;2022-07-04T21:28:25;9.40;;;8.30;;
21927;SDS011;11128;51.096;17.190;2022-07-04T21:33:26;12.38;;;9.40;;
21927;SDS011;11128;51.096;17.190;2022-07-04T21:38:28;10.43;;;8.10;;
21927;SDS011;11128;51.096;17.190;2022-07-04T21:43:30;11.63;;;8.15;;
21927;SDS011;11128;51.096;17.190;2022-07-04T21:48:32;9.38;;;8.38;;
21927;SDS011;11128;51.096;17.190;2022-07-04T21:53:33;10.57;;;8.25;;
21927;SDS011;11128;51.096;17.190;2022-07-04T21:58:35;9.25;;;8.30;;
21927;SDS011;11128;51.096;17.190;2022-07-04T22:03:37;10.90;;;8.05;;
21927;SDS011;11128;51.096;17.190;2022-07-04T22:08:39;10.63;;;8.63;;
21927;SDS011;11128;51.096;17.190;2022-07-04T22:13:41;13.05;;;9.95;;
21927;SDS011;11128;51.096;17.190;2022-07-04T22:18:42;14.88;;;9.77;;
21927;SDS011;11128;51.096;17.190;2022-07-04T22:23:45;12.68;;;9.93;;
21927;SDS011;11128;51.096;17.190;2022-07-04T22:28:47;13.45;;;10.32;;
21927;SDS011;11128;51.096;17.190;2022-07-04T22:33:49;14.15;;;9.93;;
21927;SDS011;11128;51.096;17.190;2022-07-04T22:38:51;12.20;;;9.55;;
21927;SDS011;11128;51.096;17.190;2022-07-04T22:43:53;13.77;;;9.20;;
21927;SDS011;11128;51.096;17.190;2022-07-04T22:48:55;13.27;;;9.88;;
21927;SDS011;11128;51.096;17.190;2022-07-04T22:53:57;13.50;;;10.25;;
21927;SDS011;11128;51.096;17.190;2022-07-04T22:59:17;12.52;;;9.35;;
21927;SDS011;11128;51.096;17.190;2022-07-04T23:04:19;11.27;;;9.75;;
21927;SDS011;11128;51.096;17.190;2022-07-04T23:09:20;10.65;;;8.60;;
21927;SDS011;11128;51.096;17.190;2022-07-04T23:14:22;11.57;;;9.35;;
21927;SDS011;11128;51.096;17.190;2022-07-04T23:19:24;15.38;;;12.23;;
21927;SDS011;11128;51.096;17.190;2022-07-04T23:24:25;13.23;;;10.80;;
21927;SDS011;11128;51.096;17.190;2022-07-04T23:29:28;16.42;;;11.93;;
21927;SDS011;11128;51.096;17.190;2022-07-04T23:34:31;16.35;;;11.75;;
21927;SDS011;11128;51.096;17.190;2022-07-04T23:39:32;17.67;;;12.88;;
21927;SDS011;11128;51.096;17.190;2022-07-04T23:44:34;14.50;;;11.15;;
21927;SDS011;11128;51.096;17.190;2022-07-04T23:49:35;14.32;;;11.38;;
21927;SDS011;11128;51.096;17.190;2022-07-04T23:54:36;14.05;;;10.23;;
21927;SDS011;11128;51.096;17.190;2022-07-04T23:59:38;15.27;;;11.27;;
